Mariba, Kentucky
Current Conditions -  °F | °C
As of 9:10 AM on Sunday 25 Jan 2015 (Local Time) from KSYM Reporting Station
Few Clouds Few Clouds  
Wind Chill: 32°   Ceiling: Unl
Heat Index: 36°   Visibility: 9mi
Dew Point: 30°   Wind: 5mph
Humidity: 81%   Direction: 150°SSE
Pressure: 29.79"   Gusts: NA
Location:  37.9536°N, 83.6173°W
Report Text: KSYM 251410Z AUTO 15004KT 9SM FEW120 02/M01 A2979 RMK AO2
Loading
Personal Weather Stations






























Interactive Weather Map New forecast layout! Learn more

10-Day Weather Forecast

Advertisements
Track Severe Weather on mobile